Aviation Digital Data Service (ADDS)

Output produced by METARs form (0107 UTC 17 July 2019)
found at http://www.aviationweather.gov/metar/data/
 
TAF TBPB 162300Z 1700/1724 07010KT 9999 SCT018 
     PROB30 
     TEMPO 1700/1710 SHRA BKN015 SCT036